sensor_id;sensor_type;location;lat;lon;timestamp;temperature;humidity
25616;DHT22;13482;48.234;13.006;2023-09-19T00:00:07;20.40;72.90
25616;DHT22;13482;48.234;13.006;2023-09-19T00:03:00;20.40;72.90
25616;DHT22;13482;48.234;13.006;2023-09-19T00:05:36;20.40;73.20
25616;DHT22;13482;48.234;13.006;2023-09-19T00:08:19;20.40;73.00
25616;DHT22;13482;48.234;13.006;2023-09-19T00:11:05;20.40;72.90
25616;DHT22;13482;48.234;13.006;2023-09-19T00:13:42;20.40;72.90
25616;DHT22;13482;48.234;13.006;2023-09-19T00:16:20;20.30;72.90
25616;DHT22;13482;48.234;13.006;2023-09-19T00:18:52;20.30;72.90
25616;DHT22;13482;48.234;13.006;2023-09-19T00:21:23;20.30;73.00
25616;DHT22;13482;48.234;13.006;2023-09-19T00:23:53;20.30;73.10
25616;DHT22;13482;48.234;13.006;2023-09-19T00:26:26;20.20;73.00
25616;DHT22;13482;48.234;13.006;2023-09-19T00:29:03;20.20;73.10
25616;DHT22;13482;48.234;13.006;2023-09-19T00:31:34;20.20;73.10
25616;DHT22;13482;48.234;13.006;2023-09-19T00:34:10;20.20;73.10
25616;DHT22;13482;48.234;13.006;2023-09-19T00:36:40;20.20;73.20
25616;DHT22;13482;48.234;13.006;2023-09-19T00:39:13;20.20;73.20
25616;DHT22;13482;48.234;13.006;2023-09-19T00:41:45;20.20;73.20
25616;DHT22;13482;48.234;13.006;2023-09-19T00:44:27;20.10;73.20
25616;DHT22;13482;48.234;13.006;2023-09-19T00:47:02;20.20;73.30
25616;DHT22;13482;48.234;13.006;2023-09-19T00:49:34;20.20;72.70
25616;DHT22;13482;48.234;13.006;2023-09-19T00:52:23;20.10;72.80
25616;DHT22;13482;48.234;13.006;2023-09-19T00:54:56;20.10;72.90
25616;DHT22;13482;48.234;13.006;2023-09-19T00:57:30;20.10;73.00
25616;DHT22;13482;48.234;13.006;2023-09-19T01:00:02;20.10;73.00
25616;DHT22;13482;48.234;13.006;2023-09-19T01:02:38;20.00;73.00
25616;DHT22;13482;48.234;13.006;2023-09-19T01:05:11;20.00;73.00
25616;DHT22;13482;48.234;13.006;2023-09-19T01:07:43;20.00;73.20
25616;DHT22;13482;48.234;13.006;2023-09-19T01:10:17;20.00;73.20
25616;DHT22;13482;48.234;13.006;2023-09-19T01:23:14;19.90;73.70
25616;DHT22;13482;48.234;13.006;2023-09-19T01:29:30;19.90;73.40
25616;DHT22;13482;48.234;13.006;2023-09-19T01:32:20;19.80;73.70
25616;DHT22;13482;48.234;13.006;2023-09-19T01:34:55;19.80;73.10
25616;DHT22;13482;48.234;13.006;2023-09-19T01:37:31;19.80;73.20
25616;DHT22;13482;48.234;13.006;2023-09-19T01:40:10;19.80;73.20
25616;DHT22;13482;48.234;13.006;2023-09-19T01:43:20;19.70;73.50
25616;DHT22;13482;48.234;13.006;2023-09-19T01:46:15;19.70;74.10
25616;DHT22;13482;48.234;13.006;2023-09-19T01:52:09;19.70;73.50
25616;DHT22;13482;48.234;13.006;2023-09-19T01:55:06;19.60;74.10
25616;DHT22;13482;48.234;13.006;2023-09-19T01:58:08;19.60;73.60
25616;DHT22;13482;48.234;13.006;2023-09-19T02:01:36;19.60;73.50
25616;DHT22;13482;48.234;13.006;2023-09-19T02:04:07;19.60;73.40
25616;DHT22;13482;48.234;13.006;2023-09-19T02:06:44;19.50;73.50
25616;DHT22;13482;48.234;13.006;2023-09-19T02:09:19;19.50;73.90
25616;DHT22;13482;48.234;13.006;2023-09-19T02:11:48;19.50;73.70
25616;DHT22;13482;48.234;13.006;2023-09-19T02:14:21;19.50;73.80
25616;DHT22;13482;48.234;13.006;2023-09-19T02:17:04;19.50;73.80
25616;DHT22;13482;48.234;13.006;2023-09-19T02:19:39;19.40;73.80
25616;DHT22;13482;48.234;13.006;2023-09-19T02:22:11;19.40;73.90
25616;DHT22;13482;48.234;13.006;2023-09-19T02:24:40;19.40;73.90
25616;DHT22;13482;48.234;13.006;2023-09-19T02:27:14;19.40;74.00
25616;DHT22;13482;48.234;13.006;2023-09-19T02:29:56;19.40;74.00
25616;DHT22;13482;48.234;13.006;2023-09-19T02:32:27;19.40;74.00
25616;DHT22;13482;48.234;13.006;2023-09-19T02:35:05;19.40;74.10
25616;DHT22;13482;48.234;13.006;2023-09-19T02:37:36;19.40;74.10
25616;DHT22;13482;48.234;13.006;2023-09-19T02:40:07;19.40;74.10
25616;DHT22;13482;48.234;13.006;2023-09-19T02:42:53;19.40;74.20
25616;DHT22;13482;48.234;13.006;2023-09-19T02:45:29;19.40;74.30
25616;DHT22;13482;48.234;13.006;2023-09-19T02:47:58;19.40;74.20
25616;DHT22;13482;48.234;13.006;2023-09-19T02:50:30;19.40;74.20
25616;DHT22;13482;48.234;13.006;2023-09-19T02:53:00;19.30;74.20
25616;DHT22;13482;48.234;13.006;2023-09-19T02:55:30;19.40;74.20
25616;DHT22;13482;48.234;13.006;2023-09-19T02:58:01;19.30;74.20
25616;DHT22;13482;48.234;13.006;2023-09-19T03:00:37;19.30;74.30
25616;DHT22;13482;48.234;13.006;2023-09-19T03:03:14;19.30;74.30
25616;DHT22;13482;48.234;13.006;2023-09-19T03:05:49;19.30;74.30
25616;DHT22;13482;48.234;13.006;2023-09-19T03:08:22;19.30;74.30
25616;DHT22;13482;48.234;13.006;2023-09-19T03:10:55;19.30;74.40
25616;DHT22;13482;48.234;13.006;2023-09-19T03:13:27;19.30;74.40
25616;DHT22;13482;48.234;13.006;2023-09-19T03:15:59;19.30;74.40
25616;DHT22;13482;48.234;13.006;2023-09-19T03:18:36;19.30;74.60
25616;DHT22;13482;48.234;13.006;2023-09-19T03:21:14;19.30;74.20
25616;DHT22;13482;48.234;13.006;2023-09-19T03:23:50;19.30;74.20
25616;DHT22;13482;48.234;13.006;2023-09-19T03:26:20;19.20;74.30
25616;DHT22;13482;48.234;13.006;2023-09-19T03:28:51;19.20;74.50
25616;DHT22;13482;48.234;13.006;2023-09-19T03:31:22;19.20;74.40
25616;DHT22;13482;48.234;13.006;2023-09-19T03:34:03;19.20;74.60
25616;DHT22;13482;48.234;13.006;2023-09-19T03:36:38;19.20;74.80
25616;DHT22;13482;48.234;13.006;2023-09-19T03:39:12;19.30;74.30
25616;DHT22;13482;48.234;13.006;2023-09-19T03:41:46;19.20;74.40
25616;DHT22;13482;48.234;13.006;2023-09-19T03:44:18;19.20;74.50
25616;DHT22;13482;48.234;13.006;2023-09-19T03:46:58;19.20;74.60
25616;DHT22;13482;48.234;13.006;2023-09-19T03:49:30;19.20;74.60
25616;DHT22;13482;48.234;13.006;2023-09-19T03:52:03;19.20;74.60
25616;DHT22;13482;48.234;13.006;2023-09-19T03:54:36;19.20;74.70
25616;DHT22;13482;48.234;13.006;2023-09-19T03:57:07;19.20;74.60
25616;DHT22;13482;48.234;13.006;2023-09-19T03:59:40;19.20;74.70
25616;DHT22;13482;48.234;13.006;2023-09-19T04:02:14;19.20;74.80
25616;DHT22;13482;48.234;13.006;2023-09-19T04:05:05;19.20;74.80
25616;DHT22;13482;48.234;13.006;2023-09-19T04:07:36;19.20;74.90
25616;DHT22;13482;48.234;13.006;2023-09-19T04:10:08;19.20;74.90
25616;DHT22;13482;48.234;13.006;2023-09-19T04:12:55;19.20;75.00
25616;DHT22;13482;48.234;13.006;2023-09-19T04:15:27;19.20;75.10
25616;DHT22;13482;48.234;13.006;2023-09-19T04:18:00;19.20;75.10
25616;DHT22;13482;48.234;13.006;2023-09-19T04:20:34;19.20;75.10
25616;DHT22;13482;48.234;13.006;2023-09-19T04:23:05;19.20;75.20
25616;DHT22;13482;48.234;13.006;2023-09-19T04:25:42;19.20;75.20
25616;DHT22;13482;48.234;13.006;2023-09-19T04:28:14;19.20;75.30
25616;DHT22;13482;48.234;13.006;2023-09-19T04:30:45;19.20;75.30
25616;DHT22;13482;48.234;13.006;2023-09-19T04:33:15;19.20;75.30
25616;DHT22;13482;48.234;13.006;2023-09-19T04:35:50;19.20;75.30
25616;DHT22;13482;48.234;13.006;2023-09-19T04:38:18;19.20;75.30
25616;DHT22;13482;48.234;13.006;2023-09-19T04:40:47;19.20;75.40
25616;DHT22;13482;48.234;13.006;2023-09-19T04:43:14;19.20;75.40
25616;DHT22;13482;48.234;13.006;2023-09-19T04:45:45;19.30;75.40
25616;DHT22;13482;48.234;13.006;2023-09-19T04:48:13;19.30;75.40
25616;DHT22;13482;48.234;13.006;2023-09-19T04:50:43;19.30;75.40
25616;DHT22;13482;48.234;13.006;2023-09-19T04:53:11;19.30;75.40
25616;DHT22;13482;48.234;13.006;2023-09-19T04:55:39;19.30;75.50
25616;DHT22;13482;48.234;13.006;2023-09-19T04:58:07;19.30;75.50
25616;DHT22;13482;48.234;13.006;2023-09-19T05:00:34;19.30;75.50
25616;DHT22;13482;48.234;13.006;2023-09-19T05:03:02;19.30;75.50
25616;DHT22;13482;48.234;13.006;2023-09-19T05:05:31;19.30;75.50
25616;DHT22;13482;48.234;13.006;2023-09-19T05:07:59;19.30;75.50
25616;DHT22;13482;48.234;13.006;2023-09-19T05:10:33;19.30;75.50
25616;DHT22;13482;48.234;13.006;2023-09-19T05:13:00;19.30;75.50
25616;DHT22;13482;48.234;13.006;2023-09-19T05:15:28;19.30;75.50
25616;DHT22;13482;48.234;13.006;2023-09-19T05:17:55;19.30;75.50
25616;DHT22;13482;48.234;13.006;2023-09-19T05:20:25;19.30;75.50
25616;DHT22;13482;48.234;13.006;2023-09-19T05:23:06;19.30;75.50
25616;DHT22;13482;48.234;13.006;2023-09-19T05:25:37;19.30;75.50
25616;DHT22;13482;48.234;13.006;2023-09-19T05:28:09;19.30;75.40
25616;DHT22;13482;48.234;13.006;2023-09-19T05:30:38;19.30;75.40
25616;DHT22;13482;48.234;13.006;2023-09-19T05:33:07;19.40;75.40
25616;DHT22;13482;48.234;13.006;2023-09-19T05:35:35;19.40;75.40
25616;DHT22;13482;48.234;13.006;2023-09-19T05:38:09;19.40;75.50
25616;DHT22;13482;48.234;13.006;2023-09-19T05:40:37;19.40;75.50
25616;DHT22;13482;48.234;13.006;2023-09-19T05:43:06;19.40;75.60
25616;DHT22;13482;48.234;13.006;2023-09-19T05:45:34;19.40;75.70
25616;DHT22;13482;48.234;13.006;2023-09-19T05:48:14;19.50;75.90
25616;DHT22;13482;48.234;13.006;2023-09-19T05:50:44;19.50;76.30
25616;DHT22;13482;48.234;13.006;2023-09-19T05:53:14;19.60;75.90
25616;DHT22;13482;48.234;13.006;2023-09-19T05:55:42;19.60;76.00
25616;DHT22;13482;48.234;13.006;2023-09-19T05:58:10;19.60;76.00
25616;DHT22;13482;48.234;13.006;2023-09-19T06:00:41;19.70;76.00
25616;DHT22;13482;48.234;13.006;2023-09-19T06:03:11;19.70;76.00
25616;DHT22;13482;48.234;13.006;2023-09-19T06:05:39;19.70;76.10
25616;DHT22;13482;48.234;13.006;2023-09-19T06:08:08;19.80;76.20
25616;DHT22;13482;48.234;13.006;2023-09-19T06:10:36;19.80;76.20
25616;DHT22;13482;48.234;13.006;2023-09-19T06:13:04;19.80;76.30
25616;DHT22;13482;48.234;13.006;2023-09-19T06:15:33;19.90;76.30
25616;DHT22;13482;48.234;13.006;2023-09-19T06:18:03;19.90;76.20
25616;DHT22;13482;48.234;13.006;2023-09-19T06:20:32;20.00;76.20
25616;DHT22;13482;48.234;13.006;2023-09-19T06:23:01;20.00;76.20
25616;DHT22;13482;48.234;13.006;2023-09-19T06:25:30;20.10;76.20
25616;DHT22;13482;48.234;13.006;2023-09-19T06:27:57;20.10;76.20
25616;DHT22;13482;48.234;13.006;2023-09-19T06:30:24;20.20;76.20
25616;DHT22;13482;48.234;13.006;2023-09-19T06:32:57;20.20;76.20
25616;DHT22;13482;48.234;13.006;2023-09-19T06:35:26;20.30;76.30
25616;DHT22;13482;48.234;13.006;2023-09-19T06:37:54;20.30;76.20
25616;DHT22;13482;48.234;13.006;2023-09-19T06:40:25;20.40;76.30
25616;DHT22;13482;48.234;13.006;2023-09-19T06:42:55;20.50;76.30
25616;DHT22;13482;48.234;13.006;2023-09-19T06:45:23;20.50;76.30
25616;DHT22;13482;48.234;13.006;2023-09-19T06:47:54;20.60;76.30
25616;DHT22;13482;48.234;13.006;2023-09-19T06:50:26;20.70;76.30
25616;DHT22;13482;48.234;13.006;2023-09-19T06:52:55;20.70;76.10
25616;DHT22;13482;48.234;13.006;2023-09-19T06:55:25;20.80;76.10
25616;DHT22;13482;48.234;13.006;2023-09-19T06:57:59;20.90;76.10
25616;DHT22;13482;48.234;13.006;2023-09-19T07:00:27;20.90;75.90
25616;DHT22;13482;48.234;13.006;2023-09-19T07:02:57;20.90;76.00
25616;DHT22;13482;48.234;13.006;2023-09-19T07:05:32;21.00;76.00
25616;DHT22;13482;48.234;13.006;2023-09-19T07:08:07;21.10;76.00
25616;DHT22;13482;48.234;13.006;2023-09-19T07:10:38;21.10;75.90
25616;DHT22;13482;48.234;13.006;2023-09-19T07:13:16;21.20;76.00
25616;DHT22;13482;48.234;13.006;2023-09-19T07:15:45;21.20;76.00
25616;DHT22;13482;48.234;13.006;2023-09-19T07:18:17;21.20;76.00
25616;DHT22;13482;48.234;13.006;2023-09-19T07:20:45;21.30;75.90
25616;DHT22;13482;48.234;13.006;2023-09-19T07:23:19;21.30;75.80
25616;DHT22;13482;48.234;13.006;2023-09-19T07:25:49;21.40;75.80
25616;DHT22;13482;48.234;13.006;2023-09-19T07:28:17;21.40;75.80
25616;DHT22;13482;48.234;13.006;2023-09-19T07:30:45;21.50;75.90
25616;DHT22;13482;48.234;13.006;2023-09-19T07:33:13;21.60;76.00
25616;DHT22;13482;48.234;13.006;2023-09-19T07:35:44;21.60;75.90
25616;DHT22;13482;48.234;13.006;2023-09-19T07:38:14;21.70;75.70
25616;DHT22;13482;48.234;13.006;2023-09-19T07:40:41;21.70;75.60
25616;DHT22;13482;48.234;13.006;2023-09-19T07:43:09;21.80;75.50
25616;DHT22;13482;48.234;13.006;2023-09-19T07:45:36;21.80;75.60
25616;DHT22;13482;48.234;13.006;2023-09-19T07:48:04;21.90;75.60
25616;DHT22;13482;48.234;13.006;2023-09-19T07:50:34;22.00;75.50
25616;DHT22;13482;48.234;13.006;2023-09-19T07:53:04;22.10;75.20
25616;DHT22;13482;48.234;13.006;2023-09-19T07:55:32;22.10;74.90
25616;DHT22;13482;48.234;13.006;2023-09-19T07:58:01;22.20;74.70
25616;DHT22;13482;48.234;13.006;2023-09-19T08:00:31;22.20;74.60
25616;DHT22;13482;48.234;13.006;2023-09-19T08:03:02;22.30;74.60
25616;DHT22;13482;48.234;13.006;2023-09-19T08:05:42;22.40;74.60
25616;DHT22;13482;48.234;13.006;2023-09-19T08:08:13;22.40;74.40
25616;DHT22;13482;48.234;13.006;2023-09-19T08:10:43;22.50;74.20
25616;DHT22;13482;48.234;13.006;2023-09-19T08:13:13;22.50;74.00
25616;DHT22;13482;48.234;13.006;2023-09-19T08:15:45;22.50;73.80
25616;DHT22;13482;48.234;13.006;2023-09-19T08:18:14;22.60;73.60
25616;DHT22;13482;48.234;13.006;2023-09-19T08:20:48;22.60;73.30
25616;DHT22;13482;48.234;13.006;2023-09-19T08:23:19;22.60;73.50
25616;DHT22;13482;48.234;13.006;2023-09-19T08:25:48;22.70;73.60
25616;DHT22;13482;48.234;13.006;2023-09-19T08:28:15;22.70;73.40
25616;DHT22;13482;48.234;13.006;2023-09-19T08:30:50;22.80;73.30
25616;DHT22;13482;48.234;13.006;2023-09-19T08:33:18;22.80;73.20
25616;DHT22;13482;48.234;13.006;2023-09-19T08:35:46;22.90;73.10
25616;DHT22;13482;48.234;13.006;2023-09-19T08:38:14;22.90;72.70
25616;DHT22;13482;48.234;13.006;2023-09-19T08:40:41;23.00;72.40
25616;DHT22;13482;48.234;13.006;2023-09-19T08:43:11;23.00;72.30
25616;DHT22;13482;48.234;13.006;2023-09-19T08:45:38;23.00;72.20
25616;DHT22;13482;48.234;13.006;2023-09-19T08:48:21;23.10;72.20
25616;DHT22;13482;48.234;13.006;2023-09-19T08:51:03;23.10;72.00
25616;DHT22;13482;48.234;13.006;2023-09-19T08:56:14;23.20;71.50
25616;DHT22;13482;48.234;13.006;2023-09-19T08:59:05;23.30;72.00
25616;DHT22;13482;48.234;13.006;2023-09-19T09:01:36;23.40;71.30
25616;DHT22;13482;48.234;13.006;2023-09-19T09:04:08;23.40;71.70
25616;DHT22;13482;48.234;13.006;2023-09-19T09:06:36;23.50;72.20
25616;DHT22;13482;48.234;13.006;2023-09-19T09:09:07;23.60;72.20
25616;DHT22;13482;48.234;13.006;2023-09-19T09:11:36;23.60;72.30
25616;DHT22;13482;48.234;13.006;2023-09-19T09:14:07;23.70;72.20
25616;DHT22;13482;48.234;13.006;2023-09-19T09:16:35;23.80;72.10
25616;DHT22;13482;48.234;13.006;2023-09-19T09:19:03;23.90;71.70
25616;DHT22;13482;48.234;13.006;2023-09-19T09:21:32;24.00;71.50
25616;DHT22;13482;48.234;13.006;2023-09-19T09:24:31;24.10;71.60
25616;DHT22;13482;48.234;13.006;2023-09-19T09:27:05;24.20;70.10
25616;DHT22;13482;48.234;13.006;2023-09-19T09:29:50;24.20;71.10
25616;DHT22;13482;48.234;13.006;2023-09-19T09:32:29;24.30;70.80
25616;DHT22;13482;48.234;13.006;2023-09-19T09:35:02;24.40;70.90
25616;DHT22;13482;48.234;13.006;2023-09-19T09:37:37;24.50;71.20
25616;DHT22;13482;48.234;13.006;2023-09-19T09:40:06;24.70;71.10
25616;DHT22;13482;48.234;13.006;2023-09-19T09:42:43;24.80;70.60
25616;DHT22;13482;48.234;13.006;2023-09-19T09:45:22;24.90;70.40
25616;DHT22;13482;48.234;13.006;2023-09-19T09:48:03;25.00;69.60
25616;DHT22;13482;48.234;13.006;2023-09-19T09:50:49;25.10;69.60
25616;DHT22;13482;48.234;13.006;2023-09-19T09:53:29;25.10;68.50
25616;DHT22;13482;48.234;13.006;2023-09-19T09:56:09;25.20;69.00
25616;DHT22;13482;48.234;13.006;2023-09-19T09:58:59;25.20;68.00
25616;DHT22;13482;48.234;13.006;2023-09-19T10:01:26;25.30;68.00
25616;DHT22;13482;48.234;13.006;2023-09-19T10:03:58;25.30;68.80
25616;DHT22;13482;48.234;13.006;2023-09-19T10:06:40;25.40;68.70
25616;DHT22;13482;48.234;13.006;2023-09-19T10:09:14;25.40;67.60
25616;DHT22;13482;48.234;13.006;2023-09-19T10:11:48;25.50;68.30
25616;DHT22;13482;48.234;13.006;2023-09-19T10:14:37;25.50;68.30
25616;DHT22;13482;48.234;13.006;2023-09-19T10:17:06;25.60;68.20
25616;DHT22;13482;48.234;13.006;2023-09-19T10:22:26;25.60;67.50
25616;DHT22;13482;48.234;13.006;2023-09-19T10:24:59;25.60;67.50
25616;DHT22;13482;48.234;13.006;2023-09-19T10:27:29;25.60;67.20
25616;DHT22;13482;48.234;13.006;2023-09-19T10:30:08;25.60;66.90
25616;DHT22;13482;48.234;13.006;2023-09-19T10:32:40;25.50;66.70
25616;DHT22;13482;48.234;13.006;2023-09-19T10:35:11;25.40;66.90
25616;DHT22;13482;48.234;13.006;2023-09-19T10:37:41;25.40;67.40
25616;DHT22;13482;48.234;13.006;2023-09-19T10:40:12;25.30;67.40
25616;DHT22;13482;48.234;13.006;2023-09-19T10:42:40;25.30;67.60
25616;DHT22;13482;48.234;13.006;2023-09-19T10:45:09;25.30;67.60
25616;DHT22;13482;48.234;13.006;2023-09-19T10:47:40;25.30;68.20
25616;DHT22;13482;48.234;13.006;2023-09-19T10:50:08;25.40;68.40
25616;DHT22;13482;48.234;13.006;2023-09-19T10:52:40;25.50;68.40
25616;DHT22;13482;48.234;13.006;2023-09-19T10:55:09;25.60;68.00
25616;DHT22;13482;48.234;13.006;2023-09-19T10:57:46;25.60;67.80
25616;DHT22;13482;48.234;13.006;2023-09-19T11:00:15;25.80;67.50
25616;DHT22;13482;48.234;13.006;2023-09-19T11:03:25;25.80;66.90
25616;DHT22;13482;48.234;13.006;2023-09-19T11:06:15;25.90;66.00
25616;DHT22;13482;48.234;13.006;2023-09-19T11:08:59;25.90;65.10
25616;DHT22;13482;48.234;13.006;2023-09-19T11:11:44;25.90;64.70
25616;DHT22;13482;48.234;13.006;2023-09-19T11:30:35;25.50;65.60
25616;DHT22;13482;48.234;13.006;2023-09-19T11:33:23;25.50;65.80
25616;DHT22;13482;48.234;13.006;2023-09-19T11:36:08;25.50;65.40
25616;DHT22;13482;48.234;13.006;2023-09-19T11:49:30;26.00;65.80
25616;DHT22;13482;48.234;13.006;2023-09-19T11:52:05;26.10;65.40
25616;DHT22;13482;48.234;13.006;2023-09-19T11:54:33;26.20;65.40
25616;DHT22;13482;48.234;13.006;2023-09-19T11:57:09;26.30;65.60
25616;DHT22;13482;48.234;13.006;2023-09-19T11:59:39;26.40;65.70
25616;DHT22;13482;48.234;13.006;2023-09-19T12:02:07;26.60;65.70
25616;DHT22;13482;48.234;13.006;2023-09-19T12:04:39;26.70;65.30
25616;DHT22;13482;48.234;13.006;2023-09-19T12:07:15;26.90;64.90
25616;DHT22;13482;48.234;13.006;2023-09-19T12:09:47;27.00;64.10
25616;DHT22;13482;48.234;13.006;2023-09-19T12:12:20;27.10;63.30
25616;DHT22;13482;48.234;13.006;2023-09-19T12:14:50;27.20;63.90
25616;DHT22;13482;48.234;13.006;2023-09-19T12:17:18;27.20;63.80
25616;DHT22;13482;48.234;13.006;2023-09-19T12:19:56;27.20;63.70
25616;DHT22;13482;48.234;13.006;2023-09-19T12:22:24;27.30;63.40
25616;DHT22;13482;48.234;13.006;2023-09-19T12:24:52;27.30;63.30
25616;DHT22;13482;48.234;13.006;2023-09-19T12:27:21;27.30;62.80
25616;DHT22;13482;48.234;13.006;2023-09-19T12:29:49;27.20;63.00
25616;DHT22;13482;48.234;13.006;2023-09-19T12:32:18;27.10;63.00
25616;DHT22;13482;48.234;13.006;2023-09-19T12:34:52;27.00;62.80
25616;DHT22;13482;48.234;13.006;2023-09-19T12:37:22;26.80;63.00
25616;DHT22;13482;48.234;13.006;2023-09-19T12:39:51;26.60;63.10
25616;DHT22;13482;48.234;13.006;2023-09-19T12:42:22;26.40;63.30
25616;DHT22;13482;48.234;13.006;2023-09-19T12:44:52;26.30;63.50
25616;DHT22;13482;48.234;13.006;2023-09-19T12:47:24;26.20;63.80
25616;DHT22;13482;48.234;13.006;2023-09-19T12:50:11;26.00;64.30
25616;DHT22;13482;48.234;13.006;2023-09-19T12:52:52;25.90;64.80
25616;DHT22;13482;48.234;13.006;2023-09-19T12:58:13;25.80;65.60
25616;DHT22;13482;48.234;13.006;2023-09-19T13:00:46;25.90;66.20
25616;DHT22;13482;48.234;13.006;2023-09-19T13:03:18;25.90;66.40
25616;DHT22;13482;48.234;13.006;2023-09-19T13:06:14;26.00;66.70
25616;DHT22;13482;48.234;13.006;2023-09-19T13:08:43;26.10;67.10
25616;DHT22;13482;48.234;13.006;2023-09-19T13:11:17;26.20;67.00
25616;DHT22;13482;48.234;13.006;2023-09-19T13:13:50;26.40;66.80
25616;DHT22;13482;48.234;13.006;2023-09-19T13:17:04;26.50;66.60
25616;DHT22;13482;48.234;13.006;2023-09-19T13:22:36;26.70;66.80
25616;DHT22;13482;48.234;13.006;2023-09-19T13:25:12;26.80;66.50
25616;DHT22;13482;48.234;13.006;2023-09-19T13:27:43;26.90;66.90
25616;DHT22;13482;48.234;13.006;2023-09-19T13:30:27;27.10;67.10
25616;DHT22;13482;48.234;13.006;2023-09-19T13:33:11;27.20;66.80
25616;DHT22;13482;48.234;13.006;2023-09-19T13:35:41;27.40;66.60
25616;DHT22;13482;48.234;13.006;2023-09-19T13:38:09;27.50;65.90
25616;DHT22;13482;48.234;13.006;2023-09-19T13:40:38;27.50;66.00
25616;DHT22;13482;48.234;13.006;2023-09-19T13:43:09;27.60;66.00
25616;DHT22;13482;48.234;13.006;2023-09-19T13:45:38;27.70;65.90
25616;DHT22;13482;48.234;13.006;2023-09-19T13:48:09;27.70;65.70
25616;DHT22;13482;48.234;13.006;2023-09-19T13:50:41;27.80;65.30
25616;DHT22;13482;48.234;13.006;2023-09-19T13:53:11;27.90;65.00
25616;DHT22;13482;48.234;13.006;2023-09-19T13:55:39;28.00;64.70
25616;DHT22;13482;48.234;13.006;2023-09-19T13:58:07;28.00;64.70
25616;DHT22;13482;48.234;13.006;2023-09-19T14:00:38;28.10;64.70
25616;DHT22;13482;48.234;13.006;2023-09-19T14:03:05;28.20;65.00
25616;DHT22;13482;48.234;13.006;2023-09-19T14:05:34;28.30;65.10
25616;DHT22;13482;48.234;13.006;2023-09-19T14:08:02;28.40;64.80
25616;DHT22;13482;48.234;13.006;2023-09-19T14:10:31;28.50;64.70
25616;DHT22;13482;48.234;13.006;2023-09-19T14:12:58;28.60;64.10
25616;DHT22;13482;48.234;13.006;2023-09-19T14:15:29;28.70;63.60
25616;DHT22;13482;48.234;13.006;2023-09-19T14:17:58;28.80;63.10
25616;DHT22;13482;48.234;13.006;2023-09-19T14:20:28;28.90;62.90
25616;DHT22;13482;48.234;13.006;2023-09-19T14:22:57;28.90;62.80
25616;DHT22;13482;48.234;13.006;2023-09-19T14:25:29;28.90;62.10
25616;DHT22;13482;48.234;13.006;2023-09-19T14:27:57;28.90;62.00
25616;DHT22;13482;48.234;13.006;2023-09-19T14:30:24;28.90;61.60
25616;DHT22;13482;48.234;13.006;2023-09-19T14:32:52;28.80;61.90
25616;DHT22;13482;48.234;13.006;2023-09-19T14:35:19;28.70;61.80
25616;DHT22;13482;48.234;13.006;2023-09-19T14:37:49;28.70;61.90
25616;DHT22;13482;48.234;13.006;2023-09-19T14:40:17;28.70;62.10
25616;DHT22;13482;48.234;13.006;2023-09-19T14:42:44;28.80;61.60
25616;DHT22;13482;48.234;13.006;2023-09-19T14:45:15;28.90;61.80
25616;DHT22;13482;48.234;13.006;2023-09-19T14:47:50;29.00;61.60
25616;DHT22;13482;48.234;13.006;2023-09-19T14:50:23;29.10;61.10
25616;DHT22;13482;48.234;13.006;2023-09-19T14:52:50;29.20;61.30
25616;DHT22;13482;48.234;13.006;2023-09-19T14:55:18;29.30;61.10
25616;DHT22;13482;48.234;13.006;2023-09-19T14:57:49;29.40;61.10
25616;DHT22;13482;48.234;13.006;2023-09-19T15:00:18;29.50;61.10
25616;DHT22;13482;48.234;13.006;2023-09-19T15:02:48;29.70;61.10
25616;DHT22;13482;48.234;13.006;2023-09-19T15:05:17;29.90;61.40
25616;DHT22;13482;48.234;13.006;2023-09-19T15:07:46;30.20;61.20
25616;DHT22;13482;48.234;13.006;2023-09-19T15:10:14;30.40;61.10
25616;DHT22;13482;48.234;13.006;2023-09-19T15:12:43;30.70;60.50
25616;DHT22;13482;48.234;13.006;2023-09-19T15:15:10;30.90;59.90
25616;DHT22;13482;48.234;13.006;2023-09-19T15:17:40;31.10;59.10
25616;DHT22;13482;48.234;13.006;2023-09-19T15:20:08;31.30;58.80
25616;DHT22;13482;48.234;13.006;2023-09-19T15:22:36;31.40;58.70
25616;DHT22;13482;48.234;13.006;2023-09-19T15:25:03;31.60;58.90
25616;DHT22;13482;48.234;13.006;2023-09-19T15:27:32;31.80;59.20
25616;DHT22;13482;48.234;13.006;2023-09-19T15:30:00;32.10;59.00
25616;DHT22;13482;48.234;13.006;2023-09-19T15:32:30;32.50;59.10
25616;DHT22;13482;48.234;13.006;2023-09-19T15:34:58;32.90;58.40
25616;DHT22;13482;48.234;13.006;2023-09-19T15:37:28;33.30;58.30
25616;DHT22;13482;48.234;13.006;2023-09-19T15:39:57;33.70;58.00
25616;DHT22;13482;48.234;13.006;2023-09-19T15:42:25;34.10;57.80
25616;DHT22;13482;48.234;13.006;2023-09-19T15:44:52;34.50;57.60
25616;DHT22;13482;48.234;13.006;2023-09-19T15:47:22;34.90;57.20
25616;DHT22;13482;48.234;13.006;2023-09-19T15:49:51;35.40;57.00
25616;DHT22;13482;48.234;13.006;2023-09-19T15:52:19;35.80;56.00
25616;DHT22;13482;48.234;13.006;2023-09-19T15:54:47;36.20;55.50
25616;DHT22;13482;48.234;13.006;2023-09-19T15:57:15;36.50;54.90
25616;DHT22;13482;48.234;13.006;2023-09-19T15:59:46;36.90;54.30
25616;DHT22;13482;48.234;13.006;2023-09-19T16:02:14;37.20;53.60
25616;DHT22;13482;48.234;13.006;2023-09-19T16:04:42;37.40;53.10
25616;DHT22;13482;48.234;13.006;2023-09-19T16:07:11;37.70;52.60
25616;DHT22;13482;48.234;13.006;2023-09-19T16:09:38;37.80;52.50
25616;DHT22;13482;48.234;13.006;2023-09-19T16:12:06;38.00;52.70
25616;DHT22;13482;48.234;13.006;2023-09-19T16:14:33;38.30;52.40
25616;DHT22;13482;48.234;13.006;2023-09-19T16:17:01;38.60;52.00
25616;DHT22;13482;48.234;13.006;2023-09-19T16:19:31;38.90;51.40
25616;DHT22;13482;48.234;13.006;2023-09-19T16:21:58;39.00;50.40
25616;DHT22;13482;48.234;13.006;2023-09-19T16:24:26;39.10;49.40
25616;DHT22;13482;48.234;13.006;2023-09-19T16:26:54;38.90;48.70
25616;DHT22;13482;48.234;13.006;2023-09-19T16:29:21;38.60;48.20
25616;DHT22;13482;48.234;13.006;2023-09-19T16:31:51;38.20;48.10
25616;DHT22;13482;48.234;13.006;2023-09-19T16:34:19;37.80;48.00
25616;DHT22;13482;48.234;13.006;2023-09-19T16:36:47;37.20;47.90
25616;DHT22;13482;48.234;13.006;2023-09-19T16:39:15;36.70;48.10
25616;DHT22;13482;48.234;13.006;2023-09-19T16:41:42;36.20;48.20
25616;DHT22;13482;48.234;13.006;2023-09-19T16:44:10;35.70;48.50